createdAt,value
2022-08-03T00:01:42.626Z,64.35
2022-08-03T00:04:12.019Z,64.79
2022-08-03T00:06:40.012Z,65.04
2022-08-03T00:09:10.473Z,65.36
2022-08-03T00:11:38.585Z,65.73
2022-08-03T00:14:07.570Z,65.09
2022-08-03T00:16:35.594Z,65.38
2022-08-03T00:19:04.069Z,65.57
2022-08-03T00:21:32.001Z,65.90
2022-08-03T00:24:00.712Z,66.20
2022-08-03T00:26:30.531Z,65.96
2022-08-03T00:28:58.497Z,65.84
2022-08-03T00:31:29.686Z,65.86
2022-08-03T00:34:08.192Z,65.41
2022-08-03T00:36:36.310Z,65.38
2022-08-03T00:39:04.217Z,65.57
2022-08-03T00:41:33.412Z,65.72
2022-08-03T00:44:01.294Z,65.97
2022-08-03T00:46:29.142Z,65.63
2022-08-03T00:48:57.217Z,65.31
2022-08-03T00:51:25.155Z,65.11
2022-08-03T00:53:53.165Z,65.14
2022-08-03T00:56:21.105Z,64.53
2022-08-03T00:58:51.210Z,64.40
2022-08-03T01:01:19.072Z,63.62
2022-08-03T01:03:47.436Z,63.92
2022-08-03T01:06:19.658Z,64.06
2022-08-03T01:08:53.802Z,64.89
2022-08-03T01:11:32.942Z,64.69
2022-08-03T01:14:18.941Z,64.94
2022-08-03T01:16:55.980Z,64.92
2022-08-03T01:19:37.521Z,65.70
2022-08-03T01:22:32.256Z,65.58
2022-08-03T01:25:04.532Z,64.99
2022-08-03T01:27:47.123Z,65.02
2022-08-03T01:30:16.656Z,64.74
2022-08-03T01:33:01.151Z,65.40
2022-08-03T01:35:35.486Z,66.38
2022-08-03T01:38:12.685Z,66.46
2022-08-03T01:40:42.256Z,65.97
2022-08-03T01:43:13.223Z,66.14
2022-08-03T01:45:45.136Z,66.83
2022-08-03T01:48:16.860Z,67.24
2022-08-03T01:50:46.501Z,67.14
2022-08-03T01:53:16.567Z,67.99
2022-08-03T01:55:45.561Z,67.74
2022-08-03T01:58:16.036Z,67.56
2022-08-03T02:00:47.921Z,67.85
2022-08-03T02:03:17.515Z,67.54
2022-08-03T02:05:46.865Z,67.26
2022-08-03T02:08:17.114Z,66.53
2022-08-03T02:10:47.527Z,66.77
2022-08-03T02:13:17.908Z,67.41
2022-08-03T02:15:48.372Z,67.23
2022-08-03T02:18:17.722Z,67.41
2022-08-03T02:20:46.235Z,67.47
2022-08-03T02:23:19.413Z,67.97
2022-08-03T02:25:51.980Z,67.65
2022-08-03T02:28:22.111Z,67.08
2022-08-03T02:30:56.515Z,66.84
2022-08-03T02:33:29.298Z,66.67
2022-08-03T02:35:58.798Z,66.87
2022-08-03T02:38:32.265Z,67.35
2022-08-03T02:41:00.994Z,67.77
2022-08-03T02:43:56.809Z,67.68
2022-08-03T02:46:23.816Z,67.85
2022-08-03T02:48:54.956Z,67.48
2022-08-03T02:51:24.798Z,67.68
2022-08-03T02:53:54.264Z,67.91
2022-08-03T02:56:24.424Z,68.12
2022-08-03T02:58:53.425Z,68.26
2022-08-03T03:01:24.110Z,68.59
2022-08-03T03:03:54.808Z,68.81
2022-08-03T03:06:25.252Z,68.51
2022-08-03T03:08:59.799Z,68.94
2022-08-03T03:11:28.639Z,68.35
2022-08-03T03:13:58.551Z,69.06
2022-08-03T03:16:30.834Z,69.23
2022-08-03T03:18:59.562Z,69.38
2022-08-03T03:21:28.727Z,69.36
2022-08-03T03:23:57.213Z,69.41
2022-08-03T03:26:25.124Z,69.53
2022-08-03T03:28:53.428Z,69.88
2022-08-03T03:31:21.401Z,70.11
2022-08-03T03:33:51.085Z,70.23
2022-08-03T03:36:19.482Z,70.43
2022-08-03T03:38:47.408Z,70.56
2022-08-03T03:41:15.798Z,70.94
2022-08-03T03:43:44.383Z,70.66
2022-08-03T03:46:13.916Z,70.30
2022-08-03T03:48:42.096Z,69.81
2022-08-03T03:51:11.611Z,69.92
2022-08-03T03:53:39.570Z,70.41
2022-08-03T03:56:07.505Z,70.53
2022-08-03T03:58:35.343Z,70.41
2022-08-03T04:01:03.252Z,70.62
2022-08-03T04:03:31.350Z,70.36
2022-08-03T04:06:16.926Z,71.17
2022-08-03T04:09:03.943Z,71.37
2022-08-03T04:11:37.567Z,71.59
2022-08-03T04:14:09.991Z,72.23
2022-08-03T04:16:43.667Z,71.94
2022-08-03T04:19:13.078Z,72.49
2022-08-03T04:21:44.289Z,72.73
2022-08-03T04:24:16.598Z,73.18
2022-08-03T04:26:52.330Z,72.78
2022-08-03T04:29:22.927Z,73.30
2022-08-03T04:31:53.331Z,73.24
2022-08-03T04:34:21.232Z,73.38
2022-08-03T04:36:54.864Z,72.66
2022-08-03T04:39:27.320Z,72.68
2022-08-03T04:42:07.360Z,72.63
2022-08-03T04:44:38.986Z,72.01
2022-08-03T04:47:07.188Z,71.20
2022-08-03T04:49:38.018Z,71.16
2022-08-03T04:52:08.309Z,71.02
2022-08-03T04:54:42.483Z,71.14
2022-08-03T04:57:22.357Z,70.71
2022-08-03T04:59:58.158Z,70.68
2022-08-03T05:02:30.503Z,70.18
2022-08-03T05:04:58.649Z,69.55
2022-08-03T05:07:26.578Z,69.60
2022-08-03T05:10:14.895Z,70.14
2022-08-03T05:12:45.658Z,70.23
2022-08-03T05:15:13.939Z,69.87
2022-08-03T05:17:42.701Z,68.18
2022-08-03T05:20:12.316Z,68.00
2022-08-03T05:22:40.359Z,68.25
2022-08-03T05:25:10.149Z,67.29
2022-08-03T05:27:47.786Z,67.42
2022-08-03T05:30:30.968Z,67.07
2022-08-03T05:33:03.238Z,66.82
2022-08-03T05:35:57.366Z,62.33
2022-08-03T05:38:23.790Z,63.54
2022-08-03T05:41:22.649Z,63.57
2022-08-03T05:43:46.167Z,63.75
2022-08-03T05:46:14.081Z,62.92
2022-08-03T05:48:42.476Z,61.91
2022-08-03T05:51:11.882Z,61.65
2022-08-03T05:53:40.291Z,61.17
2022-08-03T05:56:14.040Z,60.85
2022-08-03T05:58:44.343Z,60.75
2022-08-03T06:01:12.409Z,60.30
2022-08-03T06:03:40.393Z,58.73
2022-08-03T06:06:08.534Z,59.24
2022-08-03T06:08:36.619Z,58.34
2022-08-03T06:11:04.940Z,59.03
2022-08-03T06:13:34.929Z,59.19
2022-08-03T06:16:03.101Z,58.25
2022-08-03T06:18:31.003Z,56.42
2022-08-03T06:21:09.453Z,56.80
2022-08-03T06:23:54.532Z,55.80
2022-08-03T06:26:27.809Z,56.00
2022-08-03T06:28:57.229Z,56.53
2022-08-03T06:31:33.451Z,55.74
2022-08-03T06:34:33.069Z,54.73
2022-08-03T06:36:52.675Z,54.37
2022-08-03T06:39:23.439Z,53.96
2022-08-03T06:41:53.463Z,53.81
2022-08-03T06:44:22.787Z,52.59
2022-08-03T06:46:51.182Z,52.34
2022-08-03T06:49:19.210Z,51.82
2022-08-03T06:52:05.890Z,51.83
2022-08-03T06:54:36.381Z,51.85
2022-08-03T06:57:04.978Z,53.09
2022-08-03T07:00:07.591Z,53.06
2022-08-03T07:02:22.137Z,50.62
2022-08-03T07:04:50.381Z,50.22
2022-08-03T07:07:19.522Z,50.46
2022-08-03T07:09:57.317Z,48.41
2022-08-03T07:12:27.765Z,48.65
2022-08-03T07:15:02.947Z,48.05
2022-08-03T07:17:34.503Z,47.83
2022-08-03T07:20:04.709Z,47.88
2022-08-03T07:22:32.761Z,47.37
2022-08-03T07:25:01.081Z,47.99
2022-08-03T07:27:29.832Z,48.30
2022-08-03T07:30:00.237Z,49.59
2022-08-03T07:32:31.275Z,47.12
2022-08-03T07:35:01.122Z,47.18
2022-08-03T07:37:30.499Z,46.60
2022-08-03T07:39:58.601Z,49.37
2022-08-03T07:42:26.757Z,47.06
2022-08-03T07:44:57.275Z,45.54
2022-08-03T07:47:34.964Z,44.07
2022-08-03T07:50:05.603Z,43.31
2022-08-03T07:52:49.512Z,44.07
2022-08-03T07:55:18.483Z,43.45
2022-08-03T07:57:46.529Z,44.21
2022-08-03T08:00:17.474Z,48.82
2022-08-03T08:02:47.267Z,43.57
2022-08-03T08:05:15.288Z,43.03
2022-08-03T08:07:43.311Z,42.73
2022-08-03T08:10:21.114Z,41.61
2022-08-03T08:12:49.600Z,41.92
2022-08-03T08:15:17.615Z,42.70
2022-08-03T08:17:49.871Z,41.72
2022-08-03T08:20:28.436Z,40.36
2022-08-03T08:23:01.600Z,40.21
2022-08-03T08:25:31.377Z,40.30
2022-08-03T08:28:30.278Z,40.65
2022-08-03T08:30:50.235Z,40.52
2022-08-03T08:33:23.222Z,41.23
2022-08-03T08:35:54.312Z,38.33
2022-08-03T08:38:23.093Z,37.92
2022-08-03T08:40:51.626Z,38.54
2022-08-03T08:43:19.962Z,38.65
2022-08-03T08:45:50.299Z,37.77
2022-08-03T08:48:24.139Z,38.96
2022-08-03T08:50:54.548Z,37.00
2022-08-03T08:53:27.306Z,36.69
2022-08-03T08:56:00.949Z,37.61
2022-08-03T08:58:30.584Z,35.89
2022-08-03T09:00:58.667Z,35.54
2022-08-03T09:03:30.045Z,34.73
2022-08-03T09:06:02.439Z,36.80
2022-08-03T09:08:31.901Z,35.10
2022-08-03T09:11:00.605Z,35.69
2022-08-03T09:13:29.371Z,35.16
2022-08-03T09:16:14.431Z,35.52
2022-08-03T09:18:45.017Z,36.01
2022-08-03T09:21:34.396Z,35.57
2022-08-03T09:24:06.185Z,35.84
2022-08-03T09:26:51.939Z,37.68
2022-08-03T09:29:22.576Z,39.97
2022-08-03T09:31:50.482Z,35.95
2022-08-03T09:34:20.328Z,36.25
2022-08-03T09:36:49.420Z,35.74
2022-08-03T09:39:18.854Z,35.34
2022-08-03T09:41:49.607Z,36.38
2022-08-03T09:44:25.795Z,35.76
2022-08-03T09:46:56.866Z,35.43
2022-08-03T09:49:26.474Z,35.74
2022-08-03T09:52:31.606Z,35.91
2022-08-03T09:54:43.878Z,36.10
2022-08-03T09:57:23.104Z,34.88
2022-08-03T09:59:53.908Z,35.17
2022-08-03T10:02:41.461Z,36.74
2022-08-03T10:05:19.464Z,34.53
2022-08-03T10:07:49.692Z,33.86
2022-08-03T10:10:30.496Z,33.71
2022-08-03T10:13:01.268Z,33.05
2022-08-03T10:16:21.200Z,38.22
2022-08-03T10:18:19.472Z,35.39
2022-08-03T10:20:52.695Z,39.03
2022-08-03T10:23:22.529Z,36.01
2022-08-03T10:25:56.162Z,33.81
2022-08-03T10:28:24.668Z,35.43
2022-08-03T10:30:56.333Z,31.59
2022-08-03T10:33:52.044Z,31.25
2022-08-03T10:36:18.561Z,31.58
2022-08-03T10:38:52.781Z,31.53
2022-08-03T10:41:22.413Z,30.55
2022-08-03T10:43:54.483Z,30.74
2022-08-03T10:46:23.182Z,30.05
2022-08-03T10:48:52.834Z,29.34
2022-08-03T10:51:24.148Z,33.70
2022-08-03T10:53:55.001Z,29.75
2022-08-03T10:56:58.335Z,29.08
2022-08-03T10:59:59.341Z,29.48
2022-08-03T11:03:14.471Z,29.97
2022-08-03T11:05:43.672Z,29.10
2022-08-03T11:08:34.834Z,29.38
2022-08-03T11:11:28.577Z,29.33
2022-08-03T11:14:02.761Z,28.87
2022-08-03T11:16:31.894Z,27.67
2022-08-03T11:19:02.748Z,26.54
2022-08-03T11:21:54.166Z,26.38
2022-08-03T11:24:58.872Z,24.70
2022-08-03T11:27:30.482Z,25.05
2022-08-03T11:30:01.183Z,24.91
2022-08-03T11:33:01.373Z,24.25
2022-08-03T11:35:31.807Z,23.65
2022-08-03T11:38:07.115Z,23.48
2022-08-03T11:40:41.060Z,22.08
2022-08-03T11:43:33.899Z,22.57
2022-08-03T11:46:03.380Z,22.64
2022-08-03T11:48:37.312Z,23.14
2022-08-03T11:51:07.301Z,24.10
2022-08-03T11:53:41.738Z,23.09
2022-08-03T11:56:12.620Z,22.75
2022-08-03T11:59:09.347Z,22.81
2022-08-03T12:01:37.527Z,22.63
2022-08-03T12:04:06.709Z,21.06
2022-08-03T12:06:54.588Z,21.43
2022-08-03T12:09:23.460Z,20.82
2022-08-03T12:12:00.381Z,21.77
2022-08-03T12:14:50.424Z,21.79
2022-08-03T12:17:19.405Z,22.54
2022-08-03T12:19:47.963Z,21.86
2022-08-03T12:22:16.845Z,22.22
2022-08-03T12:24:47.441Z,21.58
2022-08-03T12:27:25.371Z,22.29
2022-08-03T12:29:58.774Z,22.50
2022-08-03T12:32:27.405Z,22.86
2022-08-03T12:35:00.248Z,23.85
2022-08-03T12:37:28.765Z,24.20
2022-08-03T12:40:02.346Z,25.27
2022-08-03T12:42:32.399Z,28.81
2022-08-03T12:45:02.098Z,25.20
2022-08-03T12:47:29.956Z,28.02
2022-08-03T12:49:57.855Z,25.23
2022-08-03T12:52:27.259Z,25.52
2022-08-03T12:54:57.183Z,25.09
2022-08-03T12:57:25.802Z,25.93
2022-08-03T12:59:55.930Z,25.69
2022-08-03T13:02:27.608Z,26.02
2022-08-03T13:04:56.517Z,23.69
2022-08-03T13:07:24.457Z,22.63
2022-08-03T13:09:54.725Z,23.03
2022-08-03T13:12:24.979Z,21.66
2022-08-03T13:14:55.950Z,22.28
2022-08-03T13:17:25.755Z,20.53
2022-08-03T13:19:53.845Z,22.25
2022-08-03T13:22:23.848Z,21.21
2022-08-03T13:24:53.472Z,21.30
2022-08-03T13:28:01.729Z,21.46
2022-08-03T13:30:11.406Z,22.79
2022-08-03T13:32:40.913Z,23.84
2022-08-03T13:35:10.311Z,23.87
2022-08-03T13:37:39.069Z,24.52
2022-08-03T13:40:09.088Z,25.41
2022-08-03T13:42:39.728Z,28.50
2022-08-03T13:45:09.251Z,24.33
2022-08-03T13:47:38.046Z,24.95
2022-08-03T13:50:08.111Z,24.98
2022-08-03T13:52:37.167Z,25.96
2022-08-03T13:55:07.387Z,26.83
2022-08-03T13:58:04.604Z,25.73
2022-08-03T14:00:28.941Z,25.69
2022-08-03T14:03:05.138Z,27.08
2022-08-03T14:05:35.721Z,27.76
2022-08-03T14:08:05.636Z,27.28
2022-08-03T14:10:35.460Z,26.27
2022-08-03T14:13:06.765Z,29.17
2022-08-03T14:15:37.978Z,26.47
2022-08-03T14:18:15.352Z,27.51
2022-08-03T14:20:49.049Z,26.98
2022-08-03T14:23:20.078Z,29.65
2022-08-03T14:25:52.539Z,26.56
2022-08-03T14:28:22.541Z,26.79
2022-08-03T14:30:50.940Z,26.73
2022-08-03T14:33:19.000Z,27.46
2022-08-03T14:35:51.846Z,27.02
2022-08-03T14:38:20.224Z,25.93
2022-08-03T14:40:49.152Z,26.34
2022-08-03T14:43:20.183Z,25.74
2022-08-03T14:45:48.544Z,26.31
2022-08-03T14:50:24.399Z,25.72
2022-08-03T14:51:06.323Z,26.39
2022-08-03T14:53:35.951Z,25.57
2022-08-03T14:56:09.383Z,27.74
2022-08-03T14:58:43.103Z,26.07
2022-08-03T15:02:05.168Z,26.75
2022-08-03T15:03:59.583Z,25.69
2022-08-03T15:06:28.887Z,25.22
2022-08-03T15:09:21.553Z,24.66
2022-08-03T15:11:44.986Z,25.13
2022-08-03T15:14:13.520Z,25.00
2022-08-03T15:16:43.140Z,25.04
2022-08-03T15:20:02.079Z,25.23
2022-08-03T15:22:00.933Z,25.47
2022-08-03T15:24:29.418Z,25.19
2022-08-03T15:26:57.456Z,25.83
2022-08-03T15:30:08.998Z,25.96
2022-08-03T15:32:13.248Z,25.86
2022-08-03T15:34:41.075Z,30.66
2022-08-03T15:37:20.979Z,26.15
2022-08-03T15:39:59.219Z,26.48
2022-08-03T15:42:28.358Z,26.58
2022-08-03T15:44:56.389Z,26.44
2022-08-03T15:47:25.413Z,25.68
2022-08-03T15:49:53.626Z,26.23
2022-08-03T15:52:22.870Z,26.90
2022-08-03T15:54:50.801Z,26.03
2022-08-03T15:57:19.095Z,25.84
2022-08-03T15:59:47.343Z,25.87
2022-08-03T16:02:15.331Z,25.57
2022-08-03T16:04:43.197Z,25.88
2022-08-03T16:07:12.760Z,26.71
2022-08-03T16:09:44.018Z,25.76
2022-08-03T16:12:16.102Z,24.95
2022-08-03T16:14:52.509Z,25.27
2022-08-03T16:17:22.082Z,25.67
2022-08-03T16:19:50.428Z,25.93
2022-08-03T16:22:22.887Z,27.69
2022-08-03T16:24:53.434Z,26.36
2022-08-03T16:27:36.849Z,25.97
2022-08-03T16:30:07.795Z,26.97
2022-08-03T16:32:42.079Z,26.30
2022-08-03T16:35:19.735Z,25.93
2022-08-03T16:37:54.629Z,26.41
2022-08-03T16:40:26.545Z,26.46
2022-08-03T16:42:54.727Z,26.58
2022-08-03T16:45:22.997Z,26.56
2022-08-03T16:48:01.544Z,27.54
2022-08-03T16:50:35.100Z,27.92
2022-08-03T16:53:09.291Z,26.52
2022-08-03T16:55:49.045Z,26.50
2022-08-03T16:58:24.290Z,26.74
2022-08-03T17:01:10.896Z,27.75
2022-08-03T17:04:02.411Z,26.81
2022-08-03T17:06:35.195Z,26.84
2022-08-03T17:09:09.047Z,26.50
2022-08-03T17:11:46.772Z,26.81
2022-08-03T17:14:17.012Z,26.35
2022-08-03T17:16:52.713Z,27.01
2022-08-03T17:19:24.152Z,27.56
2022-08-03T17:21:59.916Z,27.15
2022-08-03T17:24:32.186Z,26.94
2022-08-03T17:27:08.938Z,28.09
2022-08-03T17:29:45.340Z,28.37
2022-08-03T17:32:21.405Z,30.00
2022-08-03T17:34:50.135Z,29.89
2022-08-03T17:37:49.950Z,29.90
2022-08-03T17:40:12.385Z,29.47
2022-08-03T17:42:50.876Z,31.22
2022-08-03T17:45:19.565Z,30.40
2022-08-03T17:47:57.166Z,30.84
2022-08-03T17:50:35.483Z,31.10
2022-08-03T17:53:07.326Z,31.42
2022-08-03T17:55:54.838Z,31.47
2022-08-03T17:58:43.683Z,32.19
2022-08-03T18:01:59.675Z,32.26
2022-08-03T18:04:29.751Z,31.46
2022-08-03T18:07:12.161Z,32.43
2022-08-03T18:10:04.730Z,32.73
2022-08-03T18:12:45.130Z,32.44
2022-08-03T18:15:21.339Z,36.61
2022-08-03T18:17:55.603Z,38.80
2022-08-03T18:20:31.310Z,38.50
2022-08-03T18:23:04.930Z,39.82
2022-08-03T18:25:44.409Z,37.06
2022-08-03T18:28:18.809Z,40.10
2022-08-03T18:30:53.734Z,40.02
2022-08-03T18:34:17.132Z,41.01
2022-08-03T18:36:17.912Z,41.15
2022-08-03T18:38:47.517Z,42.23
2022-08-03T18:41:22.081Z,42.98
2022-08-03T18:44:08.995Z,43.15
2022-08-03T18:47:06.891Z,43.75
2022-08-03T18:49:43.260Z,43.61
2022-08-03T18:52:17.582Z,43.87
2022-08-03T18:55:02.903Z,44.12
2022-08-03T18:57:46.565Z,45.13
2022-08-03T19:00:23.871Z,45.26
2022-08-03T19:03:02.460Z,45.78
2022-08-03T19:05:56.434Z,47.17
2022-08-03T19:08:47.969Z,48.15
2022-08-03T19:11:27.785Z,48.18
2022-08-03T19:13:59.208Z,45.44
2022-08-03T19:16:32.711Z,48.99
2022-08-03T19:19:03.938Z,48.41
2022-08-03T19:21:35.880Z,44.13
2022-08-03T19:24:09.701Z,48.67
2022-08-03T19:26:41.239Z,48.61
2022-08-03T19:29:14.762Z,48.34
2022-08-03T19:31:58.750Z,50.70
2022-08-03T19:34:37.544Z,46.20
2022-08-03T19:37:06.295Z,45.32
2022-08-03T19:39:36.079Z,47.50
2022-08-03T19:42:20.152Z,46.02
2022-08-03T19:44:54.710Z,47.09
2022-08-03T19:47:28.976Z,46.86
2022-08-03T19:50:10.572Z,47.12
2022-08-03T19:52:46.118Z,48.34
2022-08-03T19:55:16.152Z,48.04
2022-08-03T19:57:47.059Z,47.97
2022-08-03T20:00:19.895Z,49.10
2022-08-03T20:02:54.110Z,49.63
2022-08-03T20:05:23.555Z,49.29
2022-08-03T20:07:51.755Z,50.29
2022-08-03T20:10:20.282Z,49.20
2022-08-03T20:12:49.586Z,50.49
2022-08-03T20:15:30.841Z,50.89
2022-08-03T20:17:59.932Z,50.95
2022-08-03T20:20:33.675Z,51.15
2022-08-03T20:23:09.670Z,52.05
2022-08-03T20:25:56.992Z,51.93
2022-08-03T20:28:31.846Z,52.06
2022-08-03T20:31:00.451Z,52.75
2022-08-03T20:33:46.633Z,53.04
2022-08-03T20:36:21.379Z,52.39
2022-08-03T20:38:57.266Z,52.89
2022-08-03T20:41:30.715Z,53.06
2022-08-03T20:44:02.104Z,53.85
2022-08-03T20:46:41.704Z,54.33
2022-08-03T20:49:23.525Z,55.16
2022-08-03T20:51:55.241Z,55.48
2022-08-03T20:54:29.838Z,55.34
2022-08-03T20:57:03.704Z,55.59
2022-08-03T20:59:50.015Z,55.75
2022-08-03T21:02:29.767Z,56.36
2022-08-03T21:05:03.352Z,56.30
2022-08-03T21:08:05.464Z,56.64
2022-08-03T21:10:32.798Z,56.97
2022-08-03T21:16:02.540Z,57.00
2022-08-03T21:18:43.633Z,58.02
2022-08-03T21:21:14.639Z,58.14
2022-08-03T21:23:48.896Z,57.75
2022-08-03T21:26:18.748Z,58.74
2022-08-03T21:28:48.083Z,58.49
2022-08-03T21:31:22.362Z,58.79
2022-08-03T21:33:58.266Z,59.17
2022-08-03T21:36:29.931Z,59.64
2022-08-03T21:39:00.429Z,59.84
2022-08-03T21:41:30.296Z,60.10
2022-08-03T21:44:02.285Z,60.04
2022-08-03T21:46:37.756Z,60.01
2022-08-03T21:50:05.166Z,60.59
2022-08-03T21:52:00.356Z,60.25
2022-08-03T21:54:37.183Z,60.42
2022-08-03T21:57:17.338Z,60.49
2022-08-03T21:59:55.940Z,60.53
2022-08-03T22:02:30.128Z,60.69
2022-08-03T22:05:05.198Z,60.96
2022-08-03T22:07:34.637Z,60.65
2022-08-03T22:10:07.209Z,60.97
2022-08-03T22:12:38.245Z,60.84
2022-08-03T22:15:08.561Z,61.25
2022-08-03T22:17:55.106Z,60.80
2022-08-03T22:20:25.745Z,60.63
2022-08-03T22:22:56.954Z,61.47
2022-08-03T22:25:30.589Z,61.65
2022-08-03T22:28:00.528Z,61.28
2022-08-03T22:30:29.522Z,61.54
2022-08-03T22:32:58.933Z,61.98
2022-08-03T22:35:28.442Z,61.91
2022-08-03T22:37:58.340Z,62.19
2022-08-03T22:40:28.785Z,61.69
2022-08-03T22:42:57.840Z,62.25
2022-08-03T22:46:06.379Z,63.00
2022-08-03T22:48:17.752Z,62.09
2022-08-03T22:50:46.156Z,61.64
2022-08-03T22:53:18.152Z,61.37
2022-08-03T22:55:48.681Z,61.43
2022-08-03T22:58:17.013Z,61.31
2022-08-03T23:00:53.595Z,61.78
2022-08-03T23:03:24.381Z,62.48
2022-08-03T23:06:02.635Z,62.60
2022-08-03T23:08:34.385Z,62.93
2022-08-03T23:11:08.327Z,63.27
2022-08-03T23:13:37.088Z,63.27
2022-08-03T23:16:07.231Z,63.32
2022-08-03T23:18:43.313Z,63.39
2022-08-03T23:21:12.542Z,63.56
2022-08-03T23:23:44.334Z,63.58
2022-08-03T23:26:14.544Z,63.91
2022-08-03T23:28:46.117Z,64.17
2022-08-03T23:31:15.060Z,64.36
2022-08-03T23:33:45.344Z,64.61
2022-08-03T23:36:30.527Z,64.96
2022-08-03T23:39:01.865Z,64.31
2022-08-03T23:41:31.876Z,64.79
2022-08-03T23:44:01.808Z,64.36
2022-08-03T23:46:33.485Z,64.76
2022-08-03T23:49:03.187Z,65.61
2022-08-03T23:51:43.094Z,64.74
2022-08-03T23:54:20.446Z,65.27
2022-08-03T23:57:00.330Z,65.90
2022-08-03T23:59:37.640Z,66.00
